Time;durP1;ratioP1;P1;durP2;ratioP2;P2;SDS_P1;SDS_P2;PMS_P1;PMS_P2;Temp;Humidity;BMP_temperature;BMP_pressure;BME280_temperature;BME280_humidity;BME280_pressure;Samples;Min_cycle;Max_cycle;Signal;HPM_P1;HPM_P2
2021/10/19 00:06:48;;;;;;;17.98;9.73;;;11.20;99.90;;;;;;6622668;89;20275;-73
2021/10/19 00:16:48;;;;;;;17.25;9.52;;;11.20;99.90;;;;;;6625901;89;20776;-75
2021/10/19 00:26:49;;;;;;;16.90;9.47;;;11.20;99.90;;;;;;6626389;89;20237;-75
2021/10/19 00:36:50;;;;;;;15.43;9.35;;;11.30;99.90;;;;;;6625997;89;20539;-74
2021/10/19 00:46:51;;;;;;;17.33;9.25;;;11.40;99.90;;;;;;6624610;89;20188;-74
2021/10/19 00:56:53;;;;;;;17.23;9.38;;;11.40;99.90;;;;;;6621664;89;20259;-74
2021/10/19 01:06:54;;;;;;;17.30;9.32;;;11.50;99.90;;;;;;6625400;88;20717;-74
2021/10/19 01:16:54;;;;;;;16.50;9.85;;;11.50;99.90;;;;;;6636669;88;20288;-74
2021/10/19 01:26:55;;;;;;;19.42;10.77;;;11.50;99.90;;;;;;6630675;89;20292;-74
2021/10/19 01:36:56;;;;;;;19.17;11.20;;;11.40;99.90;;;;;;6649532;88;20193;-74
2021/10/19 01:46:56;;;;;;;26.25;12.70;;;11.40;99.90;;;;;;6624033;89;20509;-74
2021/10/19 01:56:57;;;;;;;25.80;13.40;;;11.00;99.90;;;;;;6623972;89;20330;-74
2021/10/19 02:06:57;;;;;;;23.95;13.48;;;10.70;99.90;;;;;;6625955;89;20234;-74
2021/10/19 02:16:57;;;;;;;28.17;14.68;;;10.60;99.90;;;;;;6623480;89;20193;-74
2021/10/19 02:26:58;;;;;;;29.20;15.02;;;10.50;99.90;;;;;;6624241;89;20224;-73
2021/10/19 02:36:59;;;;;;;30.88;15.80;;;10.50;99.90;;;;;;6623462;89;20364;-74
2021/10/19 02:46:59;;;;;;;32.15;16.73;;;10.50;99.90;;;;;;6622498;88;20308;-74
2021/10/19 02:57:00;;;;;;;33.58;16.60;;;10.50;99.90;;;;;;6627716;89;20206;-74
2021/10/19 03:07:01;;;;;;;37.78;17.83;;;10.40;99.90;;;;;;6627303;88;20252;-74
2021/10/19 03:17:02;;;;;;;38.28;19.23;;;10.40;99.90;;;;;;6626812;89;20668;-73
2021/10/19 03:27:03;;;;;;;44.08;19.77;;;10.40;99.90;;;;;;6626733;89;20185;-74
2021/10/19 03:37:04;;;;;;;45.03;21.08;;;10.30;99.90;;;;;;6642764;88;20672;-73
2021/10/19 03:47:04;;;;;;;41.97;20.75;;;10.30;99.90;;;;;;6627390;88;20250;-73
2021/10/19 03:57:05;;;;;;;55.05;22.13;;;10.20;99.90;;;;;;6624830;89;20195;-73
2021/10/19 04:07:06;;;;;;;45.70;21.90;;;10.40;99.90;;;;;;6625896;89;20185;-73
2021/10/19 04:17:06;;;;;;;43.80;20.70;;;10.40;99.90;;;;;;6626101;89;20214;-73
2021/10/19 04:27:07;;;;;;;40.33;18.40;;;10.50;99.90;;;;;;6623790;89;20376;-73
2021/10/19 04:47:11;;;;;;;41.03;20.65;;;10.60;99.90;;;;;;6664381;89;20240;-77
2021/10/19 04:57:12;;;;;;;39.95;19.08;;;10.60;99.90;;;;;;6677461;88;20640;-76
2021/10/19 05:07:12;;;;;;;37.35;18.73;;;10.70;99.90;;;;;;6663735;89;20187;-76
2021/10/19 05:17:13;;;;;;;37.50;17.48;;;10.70;99.90;;;;;;6664621;89;20282;-77
2021/10/19 05:27:13;;;;;;;39.53;17.70;;;10.60;99.90;;;;;;6670062;89;20195;-76
2021/10/19 05:37:14;;;;;;;33.45;16.20;;;10.60;99.90;;;;;;6664417;88;20190;-76
2021/10/19 05:47:14;;;;;;;31.02;16.35;;;10.70;99.90;;;;;;6681876;88;20202;-74
2021/10/19 05:57:15;;;;;;;30.10;16.30;;;10.80;99.90;;;;;;6693497;88;20195;-75
2021/10/19 06:07:16;;;;;;;31.70;15.37;;;10.90;99.90;;;;;;6701275;88;20768;-76
2021/10/19 06:17:16;;;;;;;28.40;14.80;;;10.90;99.90;;;;;;6664941;89;20563;-75
2021/10/19 06:27:17;;;;;;;26.33;14.05;;;11.00;99.90;;;;;;6667499;89;20684;-76
2021/10/19 06:37:17;;;;;;;21.90;12.77;;;11.10;99.90;;;;;;6667083;89;20265;-75
2021/10/19 06:47:18;;;;;;;19.75;10.80;;;11.30;99.90;;;;;;6672706;89;20210;-75
2021/10/19 06:57:18;;;;;;;18.77;11.35;;;11.40;99.90;;;;;;6670527;89;20214;-75
2021/10/19 07:07:19;;;;;;;18.75;11.25;;;11.40;99.90;;;;;;6669802;89;20190;-77
2021/10/19 07:17:19;;;;;;;14.70;8.35;;;11.50;99.90;;;;;;6667809;89;20198;-74
2021/10/19 07:27:20;;;;;;;15.50;8.68;;;11.70;99.90;;;;;;6671679;89;20202;-74
2021/10/19 07:37:22;;;;;;;11.55;7.80;;;11.90;99.90;;;;;;6669571;89;20346;-75
2021/10/19 07:47:22;;;;;;;11.52;6.87;;;12.10;99.90;;;;;;6670556;89;20195;-75
2021/10/19 07:57:23;;;;;;;9.18;5.07;;;12.30;99.90;;;;;;6684641;89;20649;-74
2021/10/19 08:07:23;;;;;;;9.13;5.30;;;12.40;99.90;;;;;;6671160;89;20585;-75
2021/10/19 08:17:24;;;;;;;6.28;4.37;;;12.60;99.90;;;;;;6673216;89;20199;-73
2021/10/19 08:27:25;;;;;;;6.65;4.20;;;12.80;99.90;;;;;;6673369;89;20931;-77
2021/10/19 08:37:26;;;;;;;7.95;4.60;;;12.80;99.90;;;;;;6687371;88;20194;-74
2021/10/19 08:47:26;;;;;;;6.15;4.65;;;12.90;99.90;;;;;;6683823;88;20220;-77
2021/10/19 08:57:27;;;;;;;6.87;4.75;;;13.10;99.90;;;;;;6673889;89;20251;-75
2021/10/19 09:07:28;;;;;;;8.52;4.68;;;13.30;99.90;;;;;;6675414;89;20182;-77
2021/10/19 09:17:36;;;;;;;10.87;5.57;;;13.30;99.90;;;;;;6685253;88;20281;-77
2021/10/19 09:27:42;;;;;;;6.80;4.43;;;13.60;99.90;;;;;;6671998;89;20305;-76
2021/10/19 09:37:42;;;;;;;6.63;4.57;;;13.90;99.90;;;;;;6671311;89;20197;-78
2021/10/19 09:47:43;;;;;;;5.80;4.43;;;14.10;99.90;;;;;;6672055;89;21028;-79
2021/10/19 09:57:45;;;;;;;6.82;3.95;;;14.20;99.90;;;;;;6673507;89;20329;-76
2021/10/19 10:07:48;;;;;;;6.85;4.47;;;14.20;99.90;;;;;;6684075;88;20929;-76
2021/10/19 10:17:51;;;;;;;6.50;4.10;;;14.30;99.90;;;;;;6666252;89;20203;-78
2021/10/19 10:27:51;;;;;;;5.60;3.70;;;14.40;99.90;;;;;;6666404;89;20219;-77
2021/10/19 10:48:02;;;;;;;5.85;4.18;;;14.70;99.90;;;;;;6716083;88;20202;-79
2021/10/19 10:58:02;;;;;;;5.93;4.32;;;14.90;99.90;;;;;;6716279;88;20344;-78
2021/10/19 11:08:04;;;;;;;6.33;4.20;;;15.10;99.90;;;;;;6715057;88;20556;-78
2021/10/19 11:18:16;;;;;;;5.93;3.75;;;15.30;99.90;;;;;;6715796;88;20219;-79
2021/10/19 11:28:16;;;;;;;4.85;3.10;;;15.90;99.90;;;;;;6717677;88;20207;-78
2021/10/19 11:38:17;;;;;;;4.43;2.90;;;17.30;99.90;;;;;;6718605;88;20270;-79
2021/10/19 11:48:17;;;;;;;4.75;2.50;;;18.00;99.90;;;;;;6732514;88;20325;-79
2021/10/19 11:58:22;;;;;;;2.00;1.30;;;18.50;99.90;;;;;;6728938;88;20243;-80
2021/10/19 12:08:29;;;;;;;2.15;1.40;;;20.40;99.90;;;;;;6727442;88;20275;-80
2021/10/19 12:18:40;;;;;;;3.20;2.00;;;20.80;99.90;;;;;;6729682;88;20315;-79
2021/10/19 12:28:40;;;;;;;3.45;2.37;;;20.00;99.90;;;;;;6729301;88;20645;-79
2021/10/19 12:38:43;;;;;;;3.92;2.30;;;19.90;99.90;;;;;;6717977;88;20192;-79
2021/10/19 12:48:44;;;;;;;4.60;2.20;;;20.40;99.90;;;;;;6709280;88;20626;-80
2021/10/19 12:58:45;;;;;;;3.65;2.30;;;21.50;99.90;;;;;;6708781;88;20190;-79
2021/10/19 13:08:47;;;;;;;3.92;2.67;;;20.20;99.90;;;;;;6713317;88;20186;-79
2021/10/19 13:18:48;;;;;;;4.32;2.70;;;19.40;99.90;;;;;;6699747;88;20197;-79
2021/10/19 13:28:49;;;;;;;4.87;2.80;;;19.30;99.90;;;;;;6707582;88;20196;-80
2021/10/19 13:38:49;;;;;;;5.20;3.40;;;19.80;99.90;;;;;;6723837;88;20192;-80
2021/10/19 13:48:50;;;;;;;7.50;3.57;;;19.50;99.90;;;;;;6724988;88;20258;-79
2021/10/19 13:58:51;;;;;;;6.00;3.72;;;19.90;99.90;;;;;;6714669;88;20259;-79
2021/10/19 14:08:51;;;;;;;6.72;4.10;;;20.50;99.90;;;;;;6711706;88;20650;-80
2021/10/19 14:18:52;;;;;;;7.47;3.97;;;19.70;99.90;;;;;;6711279;88;20261;-78
2021/10/19 14:28:53;;;;;;;6.75;4.20;;;19.20;99.90;;;;;;6694460;88;20657;-79
2021/10/19 14:38:54;;;;;;;7.90;4.53;;;19.20;99.90;;;;;;6696179;88;20253;-79
2021/10/19 14:48:54;;;;;;;8.70;4.57;;;19.00;99.90;;;;;;6702305;88;20199;-79
2021/10/19 14:58:55;;;;;;;6.60;3.90;;;18.70;99.90;;;;;;6721186;88;21293;-79
2021/10/19 15:08:56;;;;;;;7.20;4.70;;;18.60;99.90;;;;;;6712556;88;20430;-80
2021/10/19 15:18:57;;;;;;;6.65;4.03;;;18.70;99.90;;;;;;6711603;88;20578;-80
2021/10/19 15:28:57;;;;;;;6.25;4.22;;;18.50;99.90;;;;;;6707294;88;20197;-79
2021/10/19 15:38:58;;;;;;;7.75;4.30;;;18.50;99.90;;;;;;6711926;88;20333;-79
2021/10/19 15:48:59;;;;;;;6.18;4.15;;;18.50;99.90;;;;;;6706562;88;20634;-77
2021/10/19 15:58:59;;;;;;;5.97;3.85;;;18.30;99.90;;;;;;6690181;88;20632;-77
2021/10/19 16:09:01;;;;;;;9.07;4.10;;;18.30;99.90;;;;;;6689063;88;20200;-77
2021/10/19 16:19:02;;;;;;;9.27;4.85;;;18.00;99.90;;;;;;6690385;88;20218;-77
2021/10/19 16:29:06;;;;;;;8.30;4.70;;;17.70;99.90;;;;;;6686086;88;20589;-77
2021/10/19 16:39:09;;;;;;;8.00;5.50;;;17.20;99.90;;;;;;6696194;77;20212;-76
2021/10/19 16:49:09;;;;;;;10.85;6.15;;;16.90;99.90;;;;;;6704654;88;20216;-77
2021/10/19 16:59:10;;;;;;;10.45;6.22;;;16.70;99.90;;;;;;6692147;88;20268;-77
2021/10/19 17:09:14;;;;;;;11.20;6.80;;;16.40;99.90;;;;;;6702750;88;20210;-78
2021/10/19 17:19:14;;;;;;;12.25;5.90;;;16.00;99.90;;;;;;6690189;88;20233;-76
2021/10/19 17:29:19;;;;;;;9.93;6.03;;;15.70;99.90;;;;;;6696744;88;20228;-76
2021/10/19 17:39:20;;;;;;;12.07;7.95;;;15.40;99.90;;;;;;6701909;88;20181;-76
2021/10/19 17:49:20;;;;;;;13.50;7.95;;;15.40;99.90;;;;;;6727854;88;20258;-76
2021/10/19 17:59:21;;;;;;;12.30;8.32;;;15.40;99.90;;;;;;6726142;88;20724;-76
2021/10/19 18:09:22;;;;;;;14.07;8.98;;;15.30;99.90;;;;;;6731301;88;20239;-76
2021/10/19 18:19:22;;;;;;;12.37;7.53;;;15.40;99.90;;;;;;6736673;88;20210;-76
2021/10/19 18:29:23;;;;;;;12.27;8.05;;;15.30;99.90;;;;;;6738627;88;20688;-76
2021/10/19 18:39:25;;;;;;;11.82;8.48;;;15.40;99.90;;;;;;6734935;88;20631;-77
2021/10/19 18:49:26;;;;;;;12.82;8.65;;;15.50;99.90;;;;;;6734217;88;20664;-76
2021/10/19 18:59:29;;;;;;;13.13;8.05;;;15.30;99.90;;;;;;6734172;88;20243;-76
2021/10/19 19:09:29;;;;;;;11.25;6.90;;;15.30;99.90;;;;;;6725839;88;20243;-76
2021/10/19 19:19:30;;;;;;;8.70;5.00;;;15.50;99.90;;;;;;6730465;88;20366;-76
2021/10/19 19:29:31;;;;;;;7.25;4.72;;;15.80;99.90;;;;;;6728151;88;20640;-77
2021/10/19 19:39:34;;;;;;;6.07;3.83;;;16.00;99.90;;;;;;6727851;88;20229;-77
2021/10/19 19:49:35;;;;;;;6.62;3.22;;;16.20;99.90;;;;;;6727958;88;20242;-76
2021/10/19 19:59:35;;;;;;;5.57;3.15;;;16.30;99.90;;;;;;6719750;88;20325;-77
2021/10/19 20:09:37;;;;;;;5.70;3.20;;;16.40;99.90;;;;;;6731315;88;20286;-77
2021/10/19 20:19:38;;;;;;;6.65;3.72;;;16.30;99.90;;;;;;6734647;88;20318;-77
2021/10/19 20:29:38;;;;;;;6.62;3.65;;;16.20;99.90;;;;;;6728325;88;20192;-77
2021/10/19 20:39:39;;;;;;;6.00;4.00;;;15.90;99.90;;;;;;6730205;88;20339;-76
2021/10/19 20:49:40;;;;;;;6.80;4.20;;;15.70;99.90;;;;;;6726603;88;20185;-76
2021/10/19 20:59:41;;;;;;;9.15;4.37;;;15.50;99.90;;;;;;6731377;88;20643;-76
2021/10/19 21:09:42;;;;;;;7.87;4.27;;;15.50;99.90;;;;;;6729785;88;20262;-77
2021/10/19 21:19:42;;;;;;;9.18;4.18;;;15.50;99.90;;;;;;6727830;88;21196;-76
2021/10/19 21:29:43;;;;;;;6.68;4.03;;;15.40;99.90;;;;;;6733397;88;20188;-77
2021/10/19 21:39:44;;;;;;;7.57;4.45;;;15.40;99.90;;;;;;6722633;88;20233;-77
2021/10/19 21:49:44;;;;;;;8.50;4.80;;;15.30;99.90;;;;;;6704179;88;20682;-77
2021/10/19 21:59:45;;;;;;;11.57;4.53;;;15.20;99.90;;;;;;6706378;88;20207;-77
2021/10/19 22:09:46;;;;;;;6.47;4.22;;;15.30;99.90;;;;;;6688996;88;20254;-77
2021/10/19 22:19:46;;;;;;;5.57;3.40;;;15.20;99.90;;;;;;6689166;88;20317;-78
2021/10/19 22:29:47;;;;;;;5.12;3.25;;;15.40;99.90;;;;;;6688063;88;20193;-77
2021/10/19 22:39:48;;;;;;;7.85;3.40;;;16.00;99.90;;;;;;6714190;88;20338;-77
2021/10/19 22:49:49;;;;;;;6.15;2.83;;;16.10;99.90;;;;;;6739456;88;20909;-78
2021/10/19 22:59:50;;;;;;;6.70;4.30;;;16.30;99.90;;;;;;6738328;88;20269;-78
2021/10/19 23:09:51;;;;;;;7.97;3.92;;;15.80;99.90;;;;;;6737768;88;20671;-77
2021/10/19 23:19:52;;;;;;;7.22;4.20;;;15.20;99.90;;;;;;6736232;88;20561;-77
2021/10/19 23:29:52;;;;;;;7.70;3.97;;;15.00;99.90;;;;;;6735875;88;20761;-77
2021/10/19 23:39:53;;;;;;;6.50;4.57;;;15.00;99.90;;;;;;6737932;88;20235;-78
2021/10/19 23:49:53;;;;;;;8.57;4.47;;;14.80;99.90;;;;;;6738821;88;20855;-78
2021/10/19 23:59:54;;;;;;;10.35;4.70;;;14.50;99.90;;;;;;6743073;88;20215;-77
